Time;durP1;ratioP1;P1;durP2;ratioP2;P2;SDS_P1;SDS_P2;PMS_P1;PMS_P2;Temp;Humidity;BMP_temperature;BMP_pressure;BME280_temperature;BME280_humidity;BME280_pressure;Samples;Min_cycle;Max_cycle;Signal;HPM_P1;HPM_P2
2021/10/02 00:01:49;;;;;;;1.52;1.10;;;11.70;99.90;;;;;;4977273;28;20251;-66
2021/10/02 00:44:44;;;;;;;1.02;0.93;;;11.50;99.90;;;;;;4967669;28;20251;-66
2021/10/02 00:47:13;;;;;;;1.83;1.10;;;11.50;99.90;;;;;;4971459;28;20635;-68
2021/10/02 00:49:42;;;;;;;2.25;1.17;;;11.50;99.90;;;;;;4971179;28;20911;-68
2021/10/02 00:52:10;;;;;;;1.20;0.90;;;11.50;99.90;;;;;;4970569;28;20209;-70
2021/10/02 00:54:35;;;;;;;1.10;0.90;;;11.50;99.90;;;;;;4966932;28;20189;-67
2021/10/02 00:57:01;;;;;;;2.00;1.20;;;11.70;99.90;;;;;;4969631;28;20201;-67
2021/10/02 00:59:30;;;;;;;2.30;0.90;;;11.60;99.90;;;;;;4977133;28;20188;-67
2021/10/02 01:02:05;;;;;;;3.13;1.10;;;11.60;99.90;;;;;;4969259;28;20205;-70
2021/10/02 01:05:05;;;;;;;2.10;1.20;;;11.60;99.90;;;;;;4966425;28;20231;-69
2021/10/02 01:07:34;;;;;;;1.30;1.20;;;11.60;99.90;;;;;;4969541;28;20250;-67
2021/10/02 01:10:13;;;;;;;1.92;0.98;;;11.60;99.90;;;;;;4976531;28;20291;-69
2021/10/02 01:13:16;;;;;;;1.65;1.50;;;11.70;99.90;;;;;;4967510;28;20774;-68
2021/10/02 01:16:07;;;;;;;3.67;1.70;;;11.60;99.90;;;;;;4966634;28;20808;-69
2021/10/02 01:18:40;;;;;;;1.50;1.40;;;11.70;99.90;;;;;;4968821;28;20264;-68
2021/10/02 01:21:47;;;;;;;3.75;1.20;;;11.50;99.90;;;;;;4968822;28;20204;-70
2021/10/02 01:24:43;;;;;;;1.83;1.23;;;11.50;99.90;;;;;;4968775;28;20243;-70
2021/10/02 01:27:38;;;;;;;1.77;1.40;;;11.40;99.90;;;;;;4969408;28;20564;-69
2021/10/02 01:30:08;;;;;;;1.25;1.13;;;11.40;99.90;;;;;;4973447;28;20185;-70
2021/10/02 01:32:45;;;;;;;1.55;1.30;;;11.40;99.90;;;;;;4968816;28;20805;-67
2021/10/02 01:48:21;;;;;;;1.60;1.50;;;11.40;99.90;;;;;;4967313;28;20196;-67
2021/10/02 01:50:50;;;;;;;2.53;1.27;;;11.50;99.90;;;;;;4966269;28;20205;-69
2021/10/02 01:53:17;;;;;;;1.67;1.40;;;11.50;99.90;;;;;;4972136;28;20574;-71
2021/10/02 01:55:44;;;;;;;2.55;1.50;;;11.50;99.90;;;;;;4967195;28;20268;-71
2021/10/02 01:58:16;;;;;;;2.75;1.10;;;11.50;99.90;;;;;;4967808;28;20268;-68
2021/10/02 02:00:46;;;;;;;1.45;1.20;;;11.50;99.90;;;;;;4968964;28;20199;-67
2021/10/02 02:03:15;;;;;;;1.45;1.20;;;11.50;99.90;;;;;;4970438;28;20224;-66
2021/10/02 02:05:41;;;;;;;2.05;1.42;;;11.50;99.90;;;;;;4964754;28;20479;-71
2021/10/02 02:08:11;;;;;;;1.17;1.00;;;11.50;99.90;;;;;;4965476;28;20651;-69
2021/10/02 02:10:42;;;;;;;1.73;1.25;;;11.60;99.90;;;;;;4965022;28;20204;-67
2021/10/02 02:13:09;;;;;;;2.08;1.17;;;11.60;99.90;;;;;;4968965;28;20173;-67
2021/10/02 02:15:35;;;;;;;1.85;1.33;;;11.60;99.90;;;;;;4968012;28;20636;-66
2021/10/02 02:18:05;;;;;;;1.88;1.42;;;11.50;99.90;;;;;;4974514;28;20184;-66
2021/10/02 02:20:39;;;;;;;2.53;1.35;;;11.60;99.90;;;;;;4967547;28;20169;-67
2021/10/02 02:23:05;;;;;;;3.15;1.40;;;11.60;99.90;;;;;;4973276;28;20172;-70
2021/10/02 02:25:32;;;;;;;1.58;1.02;;;11.60;99.90;;;;;;4971196;28;20548;-67
2021/10/02 02:27:58;;;;;;;1.90;1.20;;;11.60;99.90;;;;;;4976924;28;20173;-68
2021/10/02 02:30:24;;;;;;;3.05;1.30;;;11.60;99.90;;;;;;4966109;28;20173;-67
2021/10/02 02:32:51;;;;;;;1.10;1.00;;;11.60;99.90;;;;;;4964336;28;20208;-68
2021/10/02 02:35:21;;;;;;;1.23;0.93;;;11.60;99.90;;;;;;4965400;28;20177;-67
2021/10/02 02:37:47;;;;;;;2.35;1.13;;;11.70;99.90;;;;;;4970821;28;20212;-68
2021/10/02 02:40:13;;;;;;;1.20;1.10;;;11.70;99.90;;;;;;4970476;28;20251;-66
2021/10/02 02:42:39;;;;;;;1.20;1.10;;;11.70;99.90;;;;;;4966878;28;20224;-69
2021/10/02 02:45:06;;;;;;;1.30;0.90;;;11.70;99.90;;;;;;4972109;28;20632;-69
2021/10/02 02:47:34;;;;;;;3.22;1.13;;;11.80;99.90;;;;;;4972525;28;20184;-68
2021/10/02 02:50:14;;;;;;;2.65;0.90;;;11.80;99.90;;;;;;4967157;28;20192;-69
2021/10/02 02:53:03;;;;;;;0.70;0.70;;;11.80;99.90;;;;;;4965449;28;21047;-67
2021/10/02 02:55:38;;;;;;;1.50;1.00;;;11.90;99.90;;;;;;4970991;28;20570;-70
2021/10/02 02:58:06;;;;;;;1.33;1.00;;;12.00;99.90;;;;;;4967891;28;20181;-66
2021/10/02 03:00:40;;;;;;;2.45;1.15;;;12.00;99.90;;;;;;4971063;28;20232;-67
2021/10/02 03:03:10;;;;;;;2.20;0.90;;;12.00;99.90;;;;;;4967151;28;20192;-70
2021/10/02 03:05:40;;;;;;;0.95;0.85;;;11.90;99.90;;;;;;4965011;28;20185;-69
2021/10/02 03:08:15;;;;;;;1.23;1.00;;;11.90;99.90;;;;;;4964990;28;20183;-68
2021/10/02 03:10:47;;;;;;;1.38;0.80;;;12.00;99.90;;;;;;4964703;28;20203;-72
2021/10/02 03:13:17;;;;;;;1.15;0.85;;;11.90;99.90;;;;;;4965019;28;20625;-70
2021/10/02 03:15:46;;;;;;;0.95;0.95;;;12.00;99.90;;;;;;4970509;28;20613;-70
2021/10/02 03:18:13;;;;;;;0.98;0.88;;;12.10;99.90;;;;;;4968825;28;20347;-67
2021/10/02 03:20:40;;;;;;;2.28;1.00;;;12.10;99.90;;;;;;4970916;28;20283;-71
2021/10/02 03:23:07;;;;;;;4.05;1.00;;;12.10;99.90;;;;;;4968098;28;20181;-68
2021/10/02 03:25:34;;;;;;;1.30;0.98;;;12.10;99.90;;;;;;4974830;28;20292;-69
2021/10/02 03:28:03;;;;;;;1.15;0.73;;;12.00;99.90;;;;;;4968445;28;20217;-69
2021/10/02 03:30:31;;;;;;;2.13;1.30;;;12.00;99.90;;;;;;4968870;28;20324;-67
2021/10/02 03:32:57;;;;;;;1.38;0.88;;;12.00;99.90;;;;;;4978746;28;20208;-69
2021/10/02 03:35:23;;;;;;;2.17;1.08;;;12.00;99.90;;;;;;4968759;28;20335;-69
2021/10/02 03:37:50;;;;;;;1.33;1.10;;;12.00;99.90;;;;;;4968689;28;20275;-69
2021/10/02 03:40:16;;;;;;;2.25;1.10;;;12.20;99.90;;;;;;4967920;28;20232;-69
2021/10/02 03:42:47;;;;;;;1.65;1.00;;;12.10;99.90;;;;;;4967761;28;20267;-69
2021/10/02 03:45:14;;;;;;;1.17;1.00;;;12.00;99.90;;;;;;4967937;28;20189;-68
2021/10/02 03:47:40;;;;;;;0.82;0.80;;;12.00;99.90;;;;;;4974897;28;20173;-68
2021/10/02 03:50:07;;;;;;;2.30;1.10;;;11.90;99.90;;;;;;4967933;28;20192;-68
2021/10/02 03:52:32;;;;;;;2.08;1.05;;;11.90;99.90;;;;;;4967498;28;20228;-69
2021/10/02 03:54:58;;;;;;;2.42;0.90;;;11.90;99.90;;;;;;4967762;28;20195;-70
2021/10/02 03:57:23;;;;;;;1.60;1.05;;;11.90;99.90;;;;;;4969082;28;20263;-71
2021/10/02 03:59:49;;;;;;;1.92;1.17;;;11.80;99.90;;;;;;4976428;28;20189;-69
2021/10/02 04:02:15;;;;;;;1.52;1.13;;;11.80;99.90;;;;;;4969083;28;20209;-67
2021/10/02 04:04:41;;;;;;;2.30;1.00;;;11.90;99.90;;;;;;4967418;28;20255;-69
2021/10/02 04:07:07;;;;;;;1.27;0.90;;;11.80;99.90;;;;;;4968273;28;20185;-68
2021/10/02 04:09:32;;;;;;;1.73;1.00;;;11.80;99.90;;;;;;4972812;28;20545;-67
2021/10/02 04:11:58;;;;;;;1.10;1.10;;;11.80;99.90;;;;;;4966874;28;20209;-68
2021/10/02 04:14:24;;;;;;;1.20;0.90;;;11.80;99.90;;;;;;4967809;28;20180;-68
2021/10/02 04:16:50;;;;;;;2.17;1.23;;;11.80;99.90;;;;;;4968492;28;20177;-67
2021/10/02 04:19:16;;;;;;;1.38;1.00;;;11.80;99.90;;;;;;4966366;28;20659;-65
2021/10/02 04:21:42;;;;;;;3.13;1.00;;;11.80;99.90;;;;;;4973695;28;20210;-69
2021/10/02 04:24:08;;;;;;;1.95;0.90;;;11.70;99.90;;;;;;4967592;28;20284;-69
2021/10/02 04:26:33;;;;;;;1.65;1.00;;;11.70;99.90;;;;;;4971382;28;20198;-67
2021/10/02 04:28:59;;;;;;;2.75;0.80;;;11.70;99.90;;;;;;4968846;28;20558;-68
2021/10/02 04:31:25;;;;;;;3.33;1.00;;;11.80;99.90;;;;;;4966378;28;20299;-67
2021/10/02 04:33:50;;;;;;;0.80;0.80;;;11.80;99.90;;;;;;4977384;28;20262;-66
2021/10/02 04:36:16;;;;;;;1.45;1.10;;;11.80;99.90;;;;;;4967103;28;20645;-64
2021/10/02 04:38:42;;;;;;;1.23;1.05;;;11.80;99.90;;;;;;4971213;28;20216;-66
2021/10/02 04:41:09;;;;;;;2.05;1.10;;;11.70;99.90;;;;;;4967758;28;20630;-67
2021/10/02 04:43:39;;;;;;;0.90;0.85;;;11.80;99.90;;;;;;4966343;28;20641;-69
2021/10/02 04:46:04;;;;;;;1.38;1.00;;;11.90;99.90;;;;;;4967472;28;20609;-68
2021/10/02 04:48:30;;;;;;;1.67;1.10;;;11.90;99.90;;;;;;4969289;28;20232;-71
2021/10/02 04:50:56;;;;;;;1.70;1.00;;;11.90;99.90;;;;;;4972214;28;20670;-70
2021/10/02 04:53:22;;;;;;;1.27;0.80;;;11.80;99.90;;;;;;4969724;28;20646;-68
2021/10/02 04:55:47;;;;;;;1.55;0.93;;;11.80;99.90;;;;;;4966567;28;20177;-67
2021/10/02 04:58:13;;;;;;;1.20;1.10;;;11.70;99.90;;;;;;4972369;28;20649;-70
2021/10/02 05:00:39;;;;;;;1.92;1.05;;;11.70;99.90;;;;;;4975489;28;20201;-69
2021/10/02 05:03:04;;;;;;;3.05;1.30;;;11.70;99.90;;;;;;4969604;28;20185;-69
2021/10/02 05:05:30;;;;;;;2.05;1.10;;;11.60;99.90;;;;;;4973476;28;20525;-69
2021/10/02 05:07:55;;;;;;;1.05;0.95;;;11.60;99.90;;;;;;4966789;28;20192;-66
2021/10/02 05:10:21;;;;;;;3.28;1.08;;;11.60;99.90;;;;;;4966633;28;20243;-67
2021/10/02 05:12:47;;;;;;;1.20;1.08;;;11.50;99.90;;;;;;4968587;28;20691;-68
2021/10/02 05:15:12;;;;;;;2.83;1.13;;;11.50;99.90;;;;;;4966280;28;20189;-69
2021/10/02 05:17:38;;;;;;;2.92;1.40;;;11.40;99.90;;;;;;4971244;28;21254;-69
2021/10/02 05:20:05;;;;;;;2.28;1.27;;;11.40;99.90;;;;;;4964881;28;20189;-67
2021/10/02 05:22:30;;;;;;;1.60;1.00;;;11.30;99.90;;;;;;4965959;28;20212;-67
2021/10/02 05:24:56;;;;;;;2.55;1.00;;;11.20;99.90;;;;;;4970025;28;20181;-67
2021/10/02 05:27:22;;;;;;;1.98;1.35;;;11.10;99.90;;;;;;4966435;28;20635;-69
2021/10/02 05:29:48;;;;;;;1.30;1.10;;;11.00;99.90;;;;;;4965880;28;20219;-68
2021/10/02 05:32:15;;;;;;;3.47;1.50;;;10.90;99.90;;;;;;4965659;28;20252;-68
2021/10/02 05:34:41;;;;;;;1.40;1.17;;;10.90;99.90;;;;;;4971375;28;20184;-69
2021/10/02 05:37:07;;;;;;;3.72;1.70;;;10.90;99.90;;;;;;4972437;28;20185;-68
2021/10/02 05:39:33;;;;;;;3.40;1.17;;;10.90;99.90;;;;;;4970510;28;20203;-67
2021/10/02 05:41:59;;;;;;;1.58;1.42;;;10.90;99.90;;;;;;4971015;28;20267;-68
2021/10/02 05:44:24;;;;;;;1.50;1.20;;;11.10;99.90;;;;;;4967161;28;20177;-67
2021/10/02 05:46:50;;;;;;;3.33;1.38;;;11.20;99.90;;;;;;4973293;28;20372;-67
2021/10/02 05:49:15;;;;;;;1.92;1.30;;;11.30;99.90;;;;;;4967119;28;20193;-69
2021/10/02 05:51:41;;;;;;;1.73;1.30;;;11.20;99.90;;;;;;4964783;28;20222;-68
2021/10/02 05:54:09;;;;;;;1.48;1.30;;;11.30;99.90;;;;;;4965935;28;20271;-68
2021/10/02 05:56:35;;;;;;;2.45;1.65;;;11.40;99.90;;;;;;4965572;28;20220;-68
2021/10/02 05:59:01;;;;;;;2.10;1.30;;;11.40;99.90;;;;;;4966109;28;20632;-67
2021/10/02 06:01:27;;;;;;;1.40;1.30;;;11.50;99.90;;;;;;4964962;28;20219;-65
2021/10/02 06:03:52;;;;;;;1.48;1.38;;;11.60;99.90;;;;;;4965487;28;20185;-69
2021/10/02 06:06:18;;;;;;;1.40;1.30;;;11.60;99.90;;;;;;4966496;28;20191;-67
2021/10/02 06:08:43;;;;;;;1.45;1.15;;;11.60;99.90;;;;;;4965551;28;20231;-67
2021/10/02 06:11:09;;;;;;;2.50;1.50;;;11.60;99.90;;;;;;4965284;28;20224;-67
2021/10/02 06:13:35;;;;;;;5.05;1.13;;;11.60;99.90;;;;;;4964647;28;20181;-68
2021/10/02 06:16:01;;;;;;;1.45;1.30;;;11.60;99.90;;;;;;4972132;28;20185;-65
2021/10/02 06:18:27;;;;;;;1.35;1.10;;;11.50;99.90;;;;;;4965433;28;20177;-68
2021/10/02 06:20:53;;;;;;;1.58;1.30;;;11.50;99.90;;;;;;4965611;28;20188;-68
2021/10/02 06:23:19;;;;;;;2.42;1.30;;;11.50;99.90;;;;;;4970736;28;20254;-67
2021/10/02 06:25:45;;;;;;;2.40;1.02;;;11.50;99.90;;;;;;4967942;28;20172;-67
2021/10/02 06:28:11;;;;;;;1.33;1.08;;;11.60;99.90;;;;;;4968897;28;20542;-67
2021/10/02 06:30:36;;;;;;;2.35;1.52;;;11.60;99.90;;;;;;4964896;28;20215;-71
2021/10/02 06:33:02;;;;;;;1.30;1.02;;;11.70;99.90;;;;;;4964870;28;20216;-70
2021/10/02 06:35:28;;;;;;;1.55;1.10;;;11.80;99.90;;;;;;4964790;28;20227;-68
2021/10/02 06:37:53;;;;;;;2.22;1.15;;;11.90;99.90;;;;;;4964220;28;20173;-67
2021/10/02 06:40:19;;;;;;;1.05;0.88;;;12.10;99.90;;;;;;4964605;28;20760;-69
2021/10/02 06:42:45;;;;;;;1.20;1.10;;;12.10;99.90;;;;;;4963533;28;20682;-69
2021/10/02 06:45:10;;;;;;;3.42;1.38;;;12.20;99.90;;;;;;4964794;28;20184;-68
2021/10/02 06:47:36;;;;;;;2.00;1.13;;;12.30;99.90;;;;;;4966766;28;20199;-71
2021/10/02 06:50:02;;;;;;;1.45;1.00;;;12.40;99.90;;;;;;4966320;28;20268;-68
2021/10/02 06:52:29;;;;;;;3.05;1.30;;;12.50;99.90;;;;;;4969559;28;20223;-68
2021/10/02 06:54:54;;;;;;;2.80;1.10;;;12.70;99.90;;;;;;4972860;28;20204;-69
2021/10/02 06:57:21;;;;;;;2.03;1.17;;;12.80;99.90;;;;;;4971027;28;20659;-69
2021/10/02 06:59:47;;;;;;;2.15;1.10;;;12.90;99.90;;;;;;4973665;28;20228;-70
2021/10/02 07:02:13;;;;;;;1.30;1.10;;;12.90;99.90;;;;;;4968243;28;20212;-67
2021/10/02 07:04:39;;;;;;;2.42;1.10;;;13.00;99.90;;;;;;4969000;28;20177;-69
2021/10/02 07:07:04;;;;;;;2.05;1.10;;;13.00;99.90;;;;;;4968969;28;20478;-68
2021/10/02 07:09:30;;;;;;;1.75;1.42;;;13.00;99.90;;;;;;4968649;28;20478;-68
2021/10/02 07:11:56;;;;;;;1.42;1.30;;;13.00;99.90;;;;;;4971637;28;20209;-68
2021/10/02 07:14:22;;;;;;;1.30;1.20;;;13.10;99.90;;;;;;4968805;28;20960;-67
2021/10/02 07:16:48;;;;;;;1.70;1.17;;;13.10;99.90;;;;;;4968564;28;20186;-68
2021/10/02 07:19:14;;;;;;;1.40;1.10;;;13.10;99.90;;;;;;4968609;28;20180;-69
2021/10/02 07:21:40;;;;;;;1.27;0.82;;;13.10;99.90;;;;;;4967687;28;20299;-69
2021/10/02 07:24:06;;;;;;;1.40;1.00;;;13.20;99.90;;;;;;4967586;28;20216;-67
2021/10/02 07:26:32;;;;;;;1.45;1.13;;;13.20;99.90;;;;;;4972226;28;20220;-68
2021/10/02 07:28:58;;;;;;;1.02;0.75;;;13.30;99.90;;;;;;4972423;28;20203;-68
2021/10/02 07:31:23;;;;;;;2.92;1.10;;;13.30;99.90;;;;;;4971915;28;20275;-67
2021/10/02 07:33:49;;;;;;;1.10;1.00;;;13.30;99.90;;;;;;4976120;28;20276;-69
2021/10/02 07:36:17;;;;;;;1.17;0.80;;;13.30;99.90;;;;;;4975352;28;20188;-70
2021/10/02 07:38:43;;;;;;;1.05;0.73;;;13.40;99.90;;;;;;4968596;28;20235;-68
2021/10/02 07:41:11;;;;;;;1.60;1.10;;;13.50;99.90;;;;;;4969197;28;20196;-67
2021/10/02 07:43:39;;;;;;;2.63;1.10;;;13.60;99.90;;;;;;4976175;28;20224;-68
2021/10/02 07:46:06;;;;;;;1.05;0.73;;;13.70;99.90;;;;;;4969045;28;20640;-69
2021/10/02 07:48:32;;;;;;;2.10;1.08;;;13.70;99.90;;;;;;4968591;28;20181;-69
2021/10/02 07:50:58;;;;;;;1.90;1.13;;;13.80;99.90;;;;;;4971152;28;20726;-66
2021/10/02 07:53:24;;;;;;;1.70;1.00;;;13.80;99.90;;;;;;4967792;28;20185;-68
2021/10/02 07:55:51;;;;;;;1.10;0.88;;;13.90;99.90;;;;;;4967918;28;20645;-67
2021/10/02 07:58:20;;;;;;;2.33;0.90;;;13.90;99.90;;;;;;4968236;28;20304;-69
2021/10/02 08:00:46;;;;;;;1.13;0.80;;;14.10;99.90;;;;;;4969081;28;20284;-68
2021/10/02 08:03:13;;;;;;;1.00;0.88;;;14.50;99.90;;;;;;4968287;28;20275;-67
2021/10/02 08:05:39;;;;;;;1.00;0.70;;;14.70;99.90;;;;;;4967603;28;20554;-68
2021/10/02 08:08:06;;;;;;;1.48;0.93;;;14.80;99.90;;;;;;4968235;28;20628;-71
2021/10/02 08:10:32;;;;;;;1.75;0.90;;;14.90;99.90;;;;;;4970892;28;20184;-69
2021/10/02 08:12:57;;;;;;;0.93;0.82;;;14.80;99.90;;;;;;4970531;28;20301;-68
2021/10/02 08:15:23;;;;;;;1.10;1.00;;;14.90;99.90;;;;;;4967780;28;20228;-68
2021/10/02 08:17:54;;;;;;;2.13;1.10;;;14.90;99.90;;;;;;4967514;28;20200;-68
2021/10/02 08:20:19;;;;;;;1.23;1.00;;;15.00;99.90;;;;;;4973634;28;20666;-67
2021/10/02 08:22:49;;;;;;;0.93;0.73;;;15.20;99.90;;;;;;4966988;28;20263;-69
2021/10/02 08:25:16;;;;;;;0.80;0.80;;;15.40;99.90;;;;;;4967357;28;20679;-67
2021/10/02 08:27:43;;;;;;;0.85;0.73;;;15.60;99.90;;;;;;4967408;28;20184;-71
2021/10/02 08:30:11;;;;;;;1.33;0.85;;;15.80;99.90;;;;;;4975308;28;20512;-69
2021/10/02 08:32:37;;;;;;;1.50;0.80;;;15.90;99.90;;;;;;4966430;28;20220;-70
2021/10/02 08:35:07;;;;;;;1.20;1.00;;;16.00;99.90;;;;;;4967310;28;20185;-69
2021/10/02 08:37:34;;;;;;;2.28;1.10;;;16.20;99.90;;;;;;4968698;28;20332;-66
2021/10/02 08:39:59;;;;;;;1.33;0.80;;;16.10;99.90;;;;;;4970342;28;20417;-69
2021/10/02 08:42:26;;;;;;;1.00;0.85;;;16.20;99.90;;;;;;4973823;28;20207;-70
2021/10/02 08:44:53;;;;;;;0.93;0.68;;;16.00;99.90;;;;;;4967003;28;20719;-67
2021/10/02 08:47:23;;;;;;;2.63;1.00;;;16.00;99.90;;;;;;4967074;28;20199;-67
2021/10/02 08:49:51;;;;;;;0.70;0.68;;;16.20;99.90;;;;;;4966840;28;20546;-69
2021/10/02 08:52:19;;;;;;;1.40;1.00;;;16.40;99.90;;;;;;4966285;28;20706;-69
2021/10/02 08:54:49;;;;;;;3.30;0.80;;;16.50;99.90;;;;;;4967544;28;20177;-65
2021/10/02 08:57:23;;;;;;;0.60;0.60;;;16.70;99.90;;;;;;4967043;28;20203;-68
2021/10/02 08:59:54;;;;;;;0.68;0.65;;;16.90;99.90;;;;;;4966697;28;20475;-68
2021/10/02 09:02:21;;;;;;;1.50;0.80;;;17.00;99.90;;;;;;4966011;28;20213;-69
2021/10/02 09:04:48;;;;;;;0.90;0.80;;;17.00;99.90;;;;;;4967298;28;20176;-68
2021/10/02 09:07:15;;;;;;;1.38;0.82;;;16.80;99.90;;;;;;4966724;28;20189;-67
2021/10/02 09:09:42;;;;;;;1.35;0.80;;;16.60;99.90;;;;;;4969685;28;20177;-69
2021/10/02 09:12:08;;;;;;;2.05;0.75;;;16.60;99.90;;;;;;4965961;28;20611;-69
2021/10/02 09:14:34;;;;;;;1.38;0.90;;;16.60;99.90;;;;;;4966250;28;20699;-68
2021/10/02 09:17:00;;;;;;;0.85;0.70;;;16.70;99.90;;;;;;4966159;28;20915;-69
2021/10/02 09:19:26;;;;;;;1.77;0.65;;;16.90;99.90;;;;;;4967370;28;20173;-66
2021/10/02 09:22:01;;;;;;;1.30;0.80;;;17.00;99.90;;;;;;4965121;28;20224;-66
2021/10/02 09:24:33;;;;;;;1.13;0.60;;;17.00;99.90;;;;;;4974834;28;20652;-67
2021/10/02 09:27:00;;;;;;;0.85;0.80;;;17.20;99.90;;;;;;4968673;28;20872;-67
2021/10/02 09:29:51;;;;;;;1.73;0.90;;;17.50;99.90;;;;;;4964920;28;20189;-66
2021/10/02 09:32:19;;;;;;;1.73;0.80;;;17.50;99.90;;;;;;4965428;28;20220;-69
2021/10/02 09:34:49;;;;;;;1.40;0.88;;;17.60;99.90;;;;;;4972209;28;20219;-66
2021/10/02 09:37:17;;;;;;;1.83;0.85;;;17.60;99.90;;;;;;4967752;28;20236;-67
2021/10/02 09:39:44;;;;;;;1.00;0.70;;;17.60;99.90;;;;;;4972713;28;20188;-69
2021/10/02 09:42:30;;;;;;;0.65;0.60;;;17.80;99.90;;;;;;4969992;28;20240;-69
2021/10/02 09:44:58;;;;;;;0.75;0.63;;;18.00;99.90;;;;;;4971873;28;20752;-68
2021/10/02 09:47:23;;;;;;;0.68;0.68;;;18.00;99.90;;;;;;4965967;28;20231;-69
2021/10/02 09:49:50;;;;;;;0.68;0.60;;;18.00;99.90;;;;;;4969099;28;20589;-67
2021/10/02 09:52:30;;;;;;;1.90;0.57;;;18.10;99.90;;;;;;4965117;28;20303;-69
2021/10/02 09:55:01;;;;;;;1.27;0.70;;;18.40;99.90;;;;;;4966801;28;20686;-69
2021/10/02 09:57:27;;;;;;;0.65;0.50;;;18.70;99.90;;;;;;4966207;28;20181;-68
2021/10/02 10:00:10;;;;;;;0.95;0.65;;;18.90;99.90;;;;;;4969775;28;20181;-68
2021/10/02 10:02:40;;;;;;;0.70;0.45;;;18.80;99.90;;;;;;4973890;28;20312;-67
2021/10/02 10:05:06;;;;;;;0.75;0.70;;;19.10;99.90;;;;;;4965773;28;20185;-69
2021/10/02 10:07:32;;;;;;;0.60;0.50;;;19.50;99.90;;;;;;4965708;28;20271;-66
2021/10/02 10:10:03;;;;;;;0.80;0.60;;;19.60;99.90;;;;;;4967430;28;20425;-69
2021/10/02 10:12:30;;;;;;;1.08;0.70;;;19.90;99.90;;;;;;4964560;28;20574;-70
2021/10/02 10:14:56;;;;;;;0.63;0.47;;;20.10;99.90;;;;;;4965916;28;20865;-68
2021/10/02 10:17:22;;;;;;;0.82;0.60;;;20.40;99.90;;;;;;4965586;28;20243;-67
2021/10/02 10:20:00;;;;;;;0.60;0.60;;;20.40;99.90;;;;;;4968300;28;20224;-66
2021/10/02 10:22:26;;;;;;;0.93;0.60;;;19.80;99.90;;;;;;4968072;28;20854;-68
2021/10/02 10:24:58;;;;;;;1.67;0.90;;;19.60;99.90;;;;;;4964863;28;20189;-68
2021/10/02 10:27:35;;;;;;;0.80;0.70;;;19.70;99.90;;;;;;4963353;28;20188;-65
2021/10/02 10:30:09;;;;;;;1.45;0.80;;;19.60;99.90;;;;;;4964980;28;20239;-68
2021/10/02 10:32:37;;;;;;;1.20;0.68;;;19.20;99.90;;;;;;4964810;28;20706;-67
2021/10/02 10:35:04;;;;;;;1.95;0.70;;;19.10;99.90;;;;;;4965269;28;20180;-68
2021/10/02 10:37:30;;;;;;;0.75;0.73;;;19.20;99.90;;;;;;4966303;28;20181;-67
2021/10/02 10:39:59;;;;;;;1.15;0.68;;;19.20;99.90;;;;;;4965232;28;20177;-66
2021/10/02 10:42:30;;;;;;;0.95;0.70;;;18.90;99.90;;;;;;4968101;28;20691;-67
2021/10/02 10:44:57;;;;;;;1.00;0.68;;;18.70;99.90;;;;;;4965471;28;20177;-68
2021/10/02 10:47:24;;;;;;;1.88;0.70;;;18.60;99.90;;;;;;4975587;28;20192;-67
2021/10/02 10:49:50;;;;;;;0.90;0.68;;;18.60;99.90;;;;;;4965437;28;20642;-68
2021/10/02 10:52:17;;;;;;;0.60;0.47;;;18.90;99.90;;;;;;4969453;28;20219;-70
2021/10/02 10:54:44;;;;;;;2.08;0.80;;;19.20;99.90;;;;;;4970238;28;20228;-67
2021/10/02 10:57:31;;;;;;;0.63;0.63;;;18.80;99.90;;;;;;4965078;28;20195;-70
2021/10/02 10:59:57;;;;;;;0.55;0.50;;;18.60;99.90;;;;;;4967429;28;20176;-70
2021/10/02 11:02:47;;;;;;;0.95;0.80;;;18.30;99.90;;;;;;4964409;28;20223;-69
2021/10/02 11:05:36;;;;;;;1.70;0.70;;;18.30;99.90;;;;;;4965284;28;20676;-68
2021/10/02 11:08:06;;;;;;;0.88;0.60;;;18.90;99.90;;;;;;4959998;28;20288;-70
2021/10/02 11:10:44;;;;;;;1.35;0.60;;;19.10;99.90;;;;;;4964789;28;20169;-68
2021/10/02 11:13:21;;;;;;;0.75;0.75;;;19.10;99.90;;;;;;4980026;28;20223;-68
2021/10/02 11:15:48;;;;;;;1.20;0.75;;;19.20;99.90;;;;;;4964698;28;20181;-68
2021/10/02 11:18:46;;;;;;;1.75;0.80;;;19.20;99.90;;;;;;4966173;28;20192;-68
2021/10/02 11:21:14;;;;;;;0.90;0.70;;;19.10;99.90;;;;;;4964350;28;20212;-68
2021/10/02 11:23:40;;;;;;;1.00;0.68;;;19.00;99.90;;;;;;4969101;28;20212;-68
2021/10/02 11:26:18;;;;;;;1.42;0.90;;;18.90;99.90;;;;;;4965608;28;20208;-65
2021/10/02 11:28:49;;;;;;;2.55;0.70;;;18.80;99.90;;;;;;4965104;28;20493;-70
2021/10/02 11:31:20;;;;;;;1.35;0.60;;;18.90;99.90;;;;;;4963998;28;20216;-68
2021/10/02 11:33:48;;;;;;;1.35;0.68;;;19.10;99.90;;;;;;4964970;28;20169;-67
2021/10/02 11:36:32;;;;;;;0.95;0.60;;;19.10;99.90;;;;;;4972632;28;20605;-70
2021/10/02 11:39:34;;;;;;;0.63;0.57;;;19.20;99.90;;;;;;4970853;28;20212;-67
2021/10/02 11:42:13;;;;;;;0.98;0.70;;;19.50;99.90;;;;;;4973268;28;20205;-69
2021/10/02 11:44:47;;;;;;;0.88;0.65;;;19.50;99.90;;;;;;4967977;28;20807;-71
2021/10/02 11:47:36;;;;;;;0.80;0.80;;;19.40;99.90;;;;;;4971074;28;20204;-70
2021/10/02 11:50:11;;;;;;;1.02;0.70;;;19.20;99.90;;;;;;4975549;28;20196;-67
2021/10/02 11:52:44;;;;;;;0.73;0.70;;;19.10;99.90;;;;;;4978648;28;20630;-69
2021/10/02 11:55:38;;;;;;;1.50;0.60;;;19.00;99.90;;;;;;4968015;28;20188;-68
2021/10/02 11:58:06;;;;;;;0.75;0.57;;;18.90;99.90;;;;;;4971629;28;20173;-68
2021/10/02 12:00:36;;;;;;;1.40;0.65;;;19.10;99.90;;;;;;4971268;28;20184;-69
2021/10/02 12:03:03;;;;;;;1.25;0.52;;;19.20;99.90;;;;;;4970548;28;20200;-68
2021/10/02 12:05:29;;;;;;;0.50;0.50;;;19.30;99.90;;;;;;4967628;28;20260;-66
2021/10/02 12:07:55;;;;;;;0.80;0.70;;;19.30;99.90;;;;;;4968191;28;20200;-70
2021/10/02 12:10:21;;;;;;;1.67;0.60;;;19.30;99.90;;;;;;4972406;28;20181;-70
2021/10/02 12:12:47;;;;;;;0.65;0.50;;;19.40;99.90;;;;;;4967237;28;20609;-68
2021/10/02 12:15:32;;;;;;;0.50;0.50;;;19.40;99.90;;;;;;4970000;28;20271;-68
2021/10/02 12:17:58;;;;;;;1.40;0.60;;;19.60;99.90;;;;;;4967687;28;20503;-68
2021/10/02 12:20:41;;;;;;;0.65;0.50;;;19.90;99.90;;;;;;4967401;28;20192;-71
2021/10/02 12:23:09;;;;;;;1.52;0.63;;;20.10;99.90;;;;;;4973383;28;20215;-68
2021/10/02 12:25:36;;;;;;;0.60;0.60;;;20.10;99.90;;;;;;4967047;28;20927;-67
2021/10/02 12:28:02;;;;;;;1.52;0.70;;;20.10;99.90;;;;;;4966249;28;20656;-69
2021/10/02 12:30:27;;;;;;;0.50;0.40;;;20.00;99.90;;;;;;4976517;28;20188;-66
2021/10/02 12:32:57;;;;;;;0.98;0.60;;;19.90;99.90;;;;;;4966721;28;20208;-68
2021/10/02 12:35:23;;;;;;;0.32;0.32;;;19.80;99.90;;;;;;4967468;28;20232;-68
2021/10/02 12:37:50;;;;;;;0.60;0.45;;;19.50;99.90;;;;;;4968985;28;20243;-69
2021/10/02 12:40:18;;;;;;;0.70;0.50;;;19.40;99.90;;;;;;4972393;28;20200;-69
2021/10/02 12:42:49;;;;;;;1.40;0.70;;;19.40;99.90;;;;;;4966482;28;20185;-69
2021/10/02 12:45:18;;;;;;;1.10;0.75;;;19.60;99.90;;;;;;4967158;28;20211;-68
2021/10/02 12:48:04;;;;;;;0.95;0.60;;;19.80;99.90;;;;;;4972168;28;20181;-69
2021/10/02 12:50:35;;;;;;;0.60;0.55;;;20.10;99.90;;;;;;4965864;28;20266;-65
2021/10/02 12:53:01;;;;;;;0.70;0.60;;;20.20;99.90;;;;;;4971129;28;20216;-69
2021/10/02 12:55:26;;;;;;;1.10;0.80;;;20.20;99.90;;;;;;4969579;28;20193;-65
2021/10/02 12:57:53;;;;;;;1.83;0.60;;;20.10;99.90;;;;;;4967640;28;20185;-65
2021/10/02 13:00:26;;;;;;;0.90;0.70;;;20.10;99.90;;;;;;4972962;28;20177;-70
2021/10/02 13:02:55;;;;;;;1.55;0.60;;;20.20;99.90;;;;;;4967659;28;20184;-69
2021/10/02 13:05:25;;;;;;;1.05;0.85;;;20.20;99.90;;;;;;4976820;28;20231;-70
2021/10/02 13:07:56;;;;;;;1.77;0.60;;;20.20;99.90;;;;;;4971250;28;20177;-67
2021/10/02 13:10:28;;;;;;;1.60;0.70;;;20.20;99.90;;;;;;4966503;28;20189;-69
2021/10/02 13:12:57;;;;;;;2.13;0.88;;;20.10;99.90;;;;;;4968978;28;20195;-67
2021/10/02 13:15:25;;;;;;;1.75;0.50;;;19.90;99.90;;;;;;4972949;28;20177;-65
2021/10/02 13:18:08;;;;;;;0.80;0.60;;;19.80;99.90;;;;;;4970202;28;20180;-66
2021/10/02 13:21:02;;;;;;;0.60;0.50;;;19.60;99.90;;;;;;4975796;28;20181;-69
2021/10/02 13:23:33;;;;;;;2.13;0.82;;;19.60;99.90;;;;;;4961196;28;20279;-69
2021/10/02 13:26:17;;;;;;;0.55;0.50;;;19.60;99.90;;;;;;4976800;28;20593;-67
2021/10/02 13:28:46;;;;;;;1.25;0.60;;;19.80;99.90;;;;;;4966096;28;20223;-67
2021/10/02 13:31:14;;;;;;;0.63;0.57;;;19.90;99.90;;;;;;4966050;28;20229;-67
2021/10/02 13:33:41;;;;;;;1.00;0.60;;;20.00;99.90;;;;;;4971985;28;20277;-68
2021/10/02 13:36:07;;;;;;;0.52;0.52;;;20.10;99.90;;;;;;4972884;28;20183;-70
2021/10/02 13:38:36;;;;;;;1.50;0.60;;;20.10;99.90;;;;;;4969559;28;20939;-68
2021/10/02 13:41:06;;;;;;;1.23;0.75;;;20.00;99.90;;;;;;4966127;28;20216;-69
2021/10/02 13:43:32;;;;;;;0.90;0.60;;;19.90;99.90;;;;;;4967179;28;20189;-68
2021/10/02 13:45:57;;;;;;;0.90;0.50;;;19.80;99.90;;;;;;4970815;28;20192;-67
2021/10/02 13:48:31;;;;;;;0.43;0.40;;;19.80;99.90;;;;;;4966220;28;20644;-67
2021/10/02 13:50:58;;;;;;;0.60;0.50;;;19.60;99.90;;;;;;4969941;28;20200;-67
2021/10/02 13:53:25;;;;;;;1.15;0.90;;;19.70;99.90;;;;;;4974362;28;20208;-66